Time;durP1;ratioP1;P1;durP2;ratioP2;P2;SDS_P1;SDS_P2;PMS_P1;PMS_P2;Temp;Humidity;BMP_temperature;BMP_pressure;BME280_temperature;BME280_humidity;BME280_pressure;Samples;Min_cycle;Max_cycle;Signal;HPM_P1;HPM_P2
2022/01/27 00:06:36;;;;;;;11.55;6.65;;;-10.40;99.90;;;;;;4353060;32;20464;-64
2022/01/27 00:09:25;;;;;;;11.77;7.55;;;-10.30;99.90;;;;;;4352278;32;20067;-65
2022/01/27 00:11:51;;;;;;;11.30;6.90;;;-10.40;99.90;;;;;;4354757;32;20087;-64
2022/01/27 00:14:20;;;;;;;13.77;7.22;;;-10.40;99.90;;;;;;4378657;32;20090;-64
2022/01/27 00:16:58;;;;;;;12.93;6.90;;;-10.40;99.90;;;;;;4352654;32;20094;-63
2022/01/27 00:19:25;;;;;;;13.18;7.22;;;-10.40;99.90;;;;;;4353704;32;20141;-65
2022/01/27 00:21:52;;;;;;;11.60;7.12;;;-10.40;99.90;;;;;;4378258;32;20589;-64
2022/01/27 00:24:19;;;;;;;13.02;7.78;;;-10.40;99.90;;;;;;4352233;32;20070;-65
2022/01/27 00:26:46;;;;;;;13.93;6.78;;;-10.30;99.90;;;;;;4351990;32;20078;-65
2022/01/27 00:29:13;;;;;;;12.60;7.72;;;-10.40;99.90;;;;;;4352285;32;20534;-64
2022/01/27 00:31:39;;;;;;;10.73;7.07;;;-10.30;99.90;;;;;;4352175;32;20071;-64
2022/01/27 00:34:05;;;;;;;12.88;7.62;;;-10.40;99.90;;;;;;4340054;32;20172;-63
2022/01/27 00:36:33;;;;;;;11.27;6.70;;;-10.30;99.90;;;;;;4352497;32;20074;-64
2022/01/27 00:39:00;;;;;;;14.60;8.02;;;-10.30;99.90;;;;;;4352987;32;20102;-63
2022/01/27 00:41:27;;;;;;;13.20;7.05;;;-10.30;99.90;;;;;;4365333;32;20090;-64
2022/01/27 00:43:53;;;;;;;12.88;7.30;;;-10.30;99.90;;;;;;4339932;32;20086;-65
2022/01/27 00:46:20;;;;;;;12.10;7.15;;;-10.30;99.90;;;;;;4364044;32;20076;-65
2022/01/27 00:48:48;;;;;;;13.20;7.78;;;-10.30;99.90;;;;;;4377908;32;20147;-63
2022/01/27 00:51:21;;;;;;;12.75;7.32;;;-10.30;99.90;;;;;;4363937;32;20105;-64
2022/01/27 00:54:02;;;;;;;12.68;7.95;;;-10.30;99.90;;;;;;4351996;32;20511;-64
2022/01/27 00:56:47;;;;;;;13.57;7.72;;;-10.20;99.90;;;;;;4353148;32;20069;-64
2022/01/27 00:59:28;;;;;;;13.43;7.65;;;-10.20;99.90;;;;;;4341303;32;20086;-64
2022/01/27 01:02:18;;;;;;;12.70;7.35;;;-10.30;99.90;;;;;;4352978;32;20090;-65
2022/01/27 01:04:50;;;;;;;14.00;7.50;;;-10.30;99.90;;;;;;4364047;32;20089;-64
2022/01/27 01:07:18;;;;;;;12.80;7.35;;;-10.20;99.90;;;;;;4351387;32;20073;-65
2022/01/27 01:15:18;;;;;;;13.77;6.85;;;-10.10;99.90;;;;;;4366523;32;20613;-64
2022/01/27 01:20:29;;;;;;;10.45;6.50;;;-10.10;99.90;;;;;;4377722;32;20376;-63
2022/01/27 01:31:44;;;;;;;11.65;7.03;;;-10.10;99.90;;;;;;4306168;33;20196;-63
2022/01/27 01:34:16;;;;;;;12.25;7.05;;;-10.10;99.90;;;;;;4346428;32;20097;-64
2022/01/27 01:36:49;;;;;;;11.68;7.18;;;-10.10;99.90;;;;;;4351935;32;20074;-65
2022/01/27 01:39:16;;;;;;;12.73;7.30;;;-10.10;99.90;;;;;;4339147;32;20183;-63
2022/01/27 01:41:43;;;;;;;12.00;7.12;;;-10.10;99.90;;;;;;4377516;32;20070;-63
2022/01/27 01:44:09;;;;;;;11.73;6.53;;;-10.10;99.90;;;;;;4350835;32;20520;-64
2022/01/27 01:46:36;;;;;;;14.65;7.50;;;-10.00;99.90;;;;;;4351121;32;20155;-64
2022/01/27 01:49:04;;;;;;;12.73;7.18;;;-10.10;99.90;;;;;;4350861;32;20081;-63
2022/01/27 01:51:32;;;;;;;12.80;7.00;;;-10.10;99.90;;;;;;4363476;32;20074;-63
2022/01/27 01:53:59;;;;;;;13.13;7.22;;;-10.10;99.90;;;;;;4351190;32;20082;-64
2022/01/27 01:56:26;;;;;;;12.65;6.82;;;-10.20;99.90;;;;;;4351579;32;20099;-63
2022/01/27 01:58:53;;;;;;;13.35;7.32;;;-10.10;99.90;;;;;;4351570;32;20088;-64
2022/01/27 02:01:20;;;;;;;13.38;6.75;;;-10.10;99.90;;;;;;4350618;32;20219;-65
2022/01/27 02:03:47;;;;;;;12.45;6.95;;;-10.10;99.90;;;;;;4363156;32;20183;-64
2022/01/27 02:06:30;;;;;;;12.68;7.15;;;-10.10;99.90;;;;;;4362647;32;20077;-66
2022/01/27 02:09:16;;;;;;;11.38;6.75;;;-10.10;99.90;;;;;;4340369;32;20483;-64
2022/01/27 02:19:59;;;;;;;11.02;7.05;;;-10.10;99.90;;;;;;4365278;32;20073;-64
2022/01/27 02:22:26;;;;;;;10.77;6.82;;;-10.20;99.90;;;;;;4338170;32;20082;-63
2022/01/27 02:24:53;;;;;;;10.77;6.60;;;-10.20;99.90;;;;;;4363041;32;20173;-63
2022/01/27 02:27:21;;;;;;;10.68;6.85;;;-10.20;99.90;;;;;;4340363;32;20101;-64
2022/01/27 02:29:48;;;;;;;11.18;7.05;;;-10.20;99.90;;;;;;4374759;32;20088;-63
2022/01/27 02:32:16;;;;;;;12.32;6.97;;;-10.10;99.90;;;;;;4346274;32;20208;-64
2022/01/27 02:34:44;;;;;;;13.43;7.50;;;-10.10;99.90;;;;;;4357291;32;20192;-63
2022/01/27 02:37:11;;;;;;;10.60;7.28;;;-10.10;99.90;;;;;;4340701;32;20096;-64
2022/01/27 02:39:38;;;;;;;11.50;6.75;;;-10.10;99.90;;;;;;4362885;32;20097;-64
2022/01/27 02:42:20;;;;;;;13.73;6.62;;;-10.10;99.90;;;;;;4350347;32;20174;-65
2022/01/27 02:44:46;;;;;;;11.65;7.07;;;-10.10;99.90;;;;;;4376346;32;20452;-64
2022/01/27 02:47:17;;;;;;;10.65;6.30;;;-10.00;99.90;;;;;;4362495;32;20093;-62
2022/01/27 02:49:44;;;;;;;12.20;6.75;;;-10.00;99.90;;;;;;4338019;32;20500;-64
2022/01/27 02:52:11;;;;;;;11.55;7.43;;;-10.10;99.90;;;;;;4337443;32;20449;-65
2022/01/27 02:54:38;;;;;;;11.52;6.85;;;-10.10;99.90;;;;;;4350284;32;20086;-64
2022/01/27 02:57:05;;;;;;;13.52;7.50;;;-10.10;99.90;;;;;;4338444;32;20078;-63
2022/01/27 02:59:31;;;;;;;11.07;7.07;;;-10.10;99.90;;;;;;4362655;32;20078;-63
2022/01/27 03:01:58;;;;;;;11.65;6.90;;;-10.20;99.90;;;;;;4337702;32;20148;-62
2022/01/27 03:04:25;;;;;;;10.73;6.37;;;-10.30;99.90;;;;;;4350364;32;20539;-64
2022/01/27 03:06:52;;;;;;;13.93;7.00;;;-10.20;99.90;;;;;;4349816;32;20136;-64
2022/01/27 03:09:19;;;;;;;12.23;6.90;;;-10.30;99.90;;;;;;4350207;32;20082;-64
2022/01/27 03:11:58;;;;;;;10.48;6.25;;;-10.20;99.90;;;;;;4349835;32;20082;-64
2022/01/27 03:14:25;;;;;;;11.75;6.28;;;-10.20;99.90;;;;;;4362888;32;20074;-63
2022/01/27 03:16:59;;;;;;;10.85;6.32;;;-10.30;99.90;;;;;;4362267;32;20508;-63
2022/01/27 03:19:27;;;;;;;10.75;6.50;;;-10.20;99.90;;;;;;4350025;32;20169;-64
2022/01/27 03:21:54;;;;;;;11.98;7.20;;;-10.10;99.90;;;;;;4362882;32;20078;-63
2022/01/27 03:24:23;;;;;;;10.95;6.70;;;-10.20;99.90;;;;;;4350191;32;20074;-64
2022/01/27 03:26:50;;;;;;;12.13;6.70;;;-10.10;99.90;;;;;;4362815;32;20112;-63
2022/01/27 03:29:18;;;;;;;10.75;6.12;;;-10.10;99.90;;;;;;4365760;32;20081;-63
2022/01/27 03:31:46;;;;;;;11.48;6.85;;;-10.10;99.90;;;;;;4365865;32;20082;-64
2022/01/27 03:34:14;;;;;;;10.82;6.53;;;-10.10;99.90;;;;;;4353044;32;20093;-63
2022/01/27 03:36:40;;;;;;;11.38;6.20;;;-10.10;99.90;;;;;;4352662;32;20162;-64
2022/01/27 03:39:08;;;;;;;10.95;6.35;;;-10.00;99.90;;;;;;4352707;32;20078;-64
2022/01/27 03:41:37;;;;;;;11.05;6.55;;;-10.00;99.90;;;;;;4352858;32;20174;-65
2022/01/27 03:44:05;;;;;;;12.02;7.07;;;-9.90;99.90;;;;;;4365865;32;20066;-64
2022/01/27 03:46:32;;;;;;;9.75;6.05;;;-10.00;99.90;;;;;;4352526;32;20069;-63
2022/01/27 03:48:59;;;;;;;12.00;6.72;;;-10.00;99.90;;;;;;4353429;32;20078;-64
2022/01/27 03:51:25;;;;;;;10.35;6.10;;;-10.00;99.90;;;;;;4352889;32;20079;-64
2022/01/27 03:53:52;;;;;;;12.10;6.72;;;-10.00;99.90;;;;;;4378754;32;20081;-63
2022/01/27 03:56:18;;;;;;;12.68;6.70;;;-9.90;99.90;;;;;;4378984;32;20089;-64
2022/01/27 03:58:44;;;;;;;13.30;6.68;;;-10.00;99.90;;;;;;4364847;32;20082;-64
2022/01/27 04:01:11;;;;;;;11.48;6.80;;;-10.10;99.90;;;;;;4364958;32;20078;-63
2022/01/27 04:03:38;;;;;;;11.50;7.05;;;-10.00;99.90;;;;;;4352453;32;20509;-64
2022/01/27 04:06:09;;;;;;;13.48;7.07;;;-10.10;99.90;;;;;;4339745;32;20094;-64
2022/01/27 04:08:39;;;;;;;12.35;7.15;;;-10.00;99.90;;;;;;4353260;32;20078;-63
2022/01/27 04:11:08;;;;;;;11.40;6.62;;;-10.10;99.90;;;;;;4352503;32;20173;-63
2022/01/27 04:13:35;;;;;;;11.88;6.85;;;-10.10;99.90;;;;;;4378434;32;20166;-63
2022/01/27 04:16:03;;;;;;;11.77;6.87;;;-10.00;99.90;;;;;;4364662;32;20097;-63
2022/01/27 04:18:30;;;;;;;13.32;7.40;;;-10.00;99.90;;;;;;4378554;32;20081;-64
2022/01/27 04:20:57;;;;;;;10.23;6.75;;;-10.00;99.90;;;;;;4339554;32;20505;-64
2022/01/27 04:23:24;;;;;;;13.43;7.47;;;-10.00;99.90;;;;;;4351910;32;20077;-64
2022/01/27 04:25:51;;;;;;;11.45;6.72;;;-10.00;99.90;;;;;;4351816;32;20089;-64
2022/01/27 04:28:26;;;;;;;11.65;6.60;;;-10.00;99.90;;;;;;4352110;32;20081;-64
2022/01/27 04:30:55;;;;;;;12.32;7.32;;;-10.00;99.90;;;;;;4364388;32;20102;-64
2022/01/27 04:33:27;;;;;;;13.65;7.00;;;-10.00;99.90;;;;;;4378148;32;20116;-64
2022/01/27 04:35:58;;;;;;;12.45;7.22;;;-10.00;99.90;;;;;;4365049;32;20508;-64
2022/01/27 04:41:45;;;;;;;12.13;7.00;;;-10.10;99.90;;;;;;4352532;32;20459;-62
2022/01/27 04:48:55;;;;;;;12.90;7.03;;;-10.00;99.90;;;;;;4364146;32;20472;-62
2022/01/27 04:51:23;;;;;;;12.00;6.10;;;-10.00;99.90;;;;;;4364995;32;20172;-63
2022/01/27 04:54:17;;;;;;;13.50;7.05;;;-9.90;99.90;;;;;;4364412;32;20070;-64
2022/01/27 04:56:44;;;;;;;12.90;7.20;;;-9.80;99.90;;;;;;4354200;32;20071;-64
2022/01/27 04:59:17;;;;;;;13.70;7.15;;;-9.80;99.90;;;;;;4364091;32;20068;-63
2022/01/27 05:01:50;;;;;;;13.50;6.82;;;-9.70;99.90;;;;;;4352386;32;20169;-63
2022/01/27 05:04:19;;;;;;;12.70;5.90;;;-9.60;99.90;;;;;;4352465;32;20074;-63
2022/01/27 05:06:48;;;;;;;9.38;6.07;;;-9.60;99.90;;;;;;4363684;32;20093;-63
2022/01/27 05:09:15;;;;;;;11.48;6.18;;;-9.50;99.90;;;;;;4364851;32;20086;-63
2022/01/27 05:11:59;;;;;;;16.15;7.40;;;-9.50;99.90;;;;;;4351227;32;20070;-64
2022/01/27 05:14:26;;;;;;;12.18;7.12;;;-9.50;99.90;;;;;;4353250;32;20090;-63
2022/01/27 05:16:53;;;;;;;11.88;6.60;;;-9.40;99.90;;;;;;4351560;32;20146;-63
2022/01/27 05:19:20;;;;;;;13.85;7.12;;;-9.40;99.90;;;;;;4363726;32;20452;-63
2022/01/27 05:21:47;;;;;;;11.30;6.50;;;-9.30;99.90;;;;;;4351737;32;20073;-62
2022/01/27 05:24:14;;;;;;;14.30;6.35;;;-9.20;99.90;;;;;;4363838;32;20090;-63
2022/01/27 05:26:41;;;;;;;13.35;6.78;;;-9.20;99.90;;;;;;4377912;32;20074;-63
2022/01/27 05:29:11;;;;;;;10.73;6.65;;;-9.10;99.90;;;;;;4351214;32;20151;-63
2022/01/27 05:31:38;;;;;;;11.48;7.05;;;-9.10;99.90;;;;;;4363952;32;20579;-64
2022/01/27 05:34:06;;;;;;;12.27;6.95;;;-9.20;99.90;;;;;;4338836;32;20085;-63
2022/01/27 05:36:36;;;;;;;12.07;6.97;;;-9.10;99.90;;;;;;4351210;32;20247;-63
2022/01/27 05:39:04;;;;;;;12.18;7.22;;;-8.90;99.90;;;;;;4351748;32;20166;-64
2022/01/27 05:41:31;;;;;;;13.43;6.57;;;-9.00;99.90;;;;;;4350928;32;20080;-64
2022/01/27 05:43:57;;;;;;;11.95;7.20;;;-9.10;99.90;;;;;;4350947;32;20518;-64
2022/01/27 05:46:24;;;;;;;12.50;7.22;;;-9.20;99.90;;;;;;4363197;32;20096;-64
2022/01/27 05:48:50;;;;;;;10.93;6.00;;;-9.30;99.90;;;;;;4363427;32;20097;-64
2022/01/27 05:51:17;;;;;;;11.55;6.20;;;-9.30;99.90;;;;;;4350184;32;20089;-63
2022/01/27 05:53:43;;;;;;;11.40;6.00;;;-9.10;99.90;;;;;;4351038;32;20449;-64
2022/01/27 05:56:10;;;;;;;12.35;6.07;;;-9.20;99.90;;;;;;4377121;32;20081;-64
2022/01/27 05:58:36;;;;;;;10.60;6.15;;;-9.10;99.90;;;;;;4350704;32;20097;-63
2022/01/27 06:01:03;;;;;;;9.80;6.37;;;-9.20;99.90;;;;;;4350737;32;20084;-64
2022/01/27 06:03:30;;;;;;;13.70;6.55;;;-9.30;99.90;;;;;;4350769;32;20093;-65
2022/01/27 06:05:56;;;;;;;11.63;6.75;;;-9.10;99.90;;;;;;4362474;32;20089;-64
2022/01/27 06:08:23;;;;;;;12.13;5.95;;;-9.20;99.90;;;;;;4351118;32;20076;-64
2022/01/27 06:10:50;;;;;;;11.43;5.95;;;-8.90;99.90;;;;;;4350956;32;20154;-65
2022/01/27 06:13:17;;;;;;;10.27;6.70;;;-8.80;99.90;;;;;;4350674;32;20519;-64
2022/01/27 06:15:43;;;;;;;12.27;6.80;;;-8.40;99.90;;;;;;4362792;32;20066;-63
2022/01/27 06:18:10;;;;;;;9.95;6.35;;;-8.60;99.90;;;;;;4350663;32;20600;-64
2022/01/27 06:20:38;;;;;;;12.10;7.12;;;-8.70;99.90;;;;;;4350307;32;20515;-63
2022/01/27 06:23:04;;;;;;;10.80;6.37;;;-8.30;99.90;;;;;;4376403;32;20504;-63
2022/01/27 06:25:31;;;;;;;10.05;6.15;;;-8.40;99.90;;;;;;4350231;32;20098;-63
2022/01/27 06:27:58;;;;;;;12.18;6.72;;;-9.00;99.90;;;;;;4363069;32;20081;-63
2022/01/27 06:30:25;;;;;;;12.30;6.60;;;-9.00;99.90;;;;;;4362536;32;20080;-63
2022/01/27 06:32:51;;;;;;;10.70;6.47;;;-9.10;99.90;;;;;;4337916;32;20075;-63
2022/01/27 06:35:17;;;;;;;13.50;7.30;;;-8.80;99.90;;;;;;4337959;32;20113;-63
2022/01/27 06:37:47;;;;;;;11.63;7.15;;;-8.80;99.90;;;;;;4350202;32;20093;-62
2022/01/27 06:40:15;;;;;;;11.75;6.75;;;-8.90;99.90;;;;;;4338226;32;20090;-63
2022/01/27 06:42:43;;;;;;;11.88;7.15;;;-8.90;99.90;;;;;;4350673;32;20077;-64
2022/01/27 06:45:10;;;;;;;12.63;7.18;;;-8.90;99.90;;;;;;4350534;32;20082;-63
2022/01/27 06:47:38;;;;;;;12.02;6.30;;;-9.00;99.90;;;;;;4349860;32;20098;-63
2022/01/27 06:50:06;;;;;;;12.05;6.68;;;-8.90;99.90;;;;;;4350817;32;20066;-63
2022/01/27 06:52:33;;;;;;;12.65;7.12;;;-8.80;99.90;;;;;;4350153;32;20101;-63
2022/01/27 06:55:02;;;;;;;11.73;6.72;;;-8.80;99.90;;;;;;4337677;32;20077;-64
2022/01/27 06:57:28;;;;;;;12.18;7.07;;;-8.70;99.90;;;;;;4376577;32;20104;-63
2022/01/27 06:59:56;;;;;;;12.82;7.95;;;-8.60;99.90;;;;;;4362280;32;20058;-63
2022/01/27 07:02:22;;;;;;;14.23;7.20;;;-8.70;99.90;;;;;;4363173;32;20089;-63
2022/01/27 07:04:49;;;;;;;10.60;6.35;;;-8.60;99.90;;;;;;4362397;32;20095;-63
2022/01/27 07:07:16;;;;;;;12.30;7.20;;;-8.40;99.90;;;;;;4375952;32;20090;-64
2022/01/27 07:09:42;;;;;;;12.48;7.40;;;-8.60;99.90;;;;;;4376314;32;20070;-63
2022/01/27 07:12:10;;;;;;;10.60;6.87;;;-8.60;99.90;;;;;;4349974;32;20079;-63
2022/01/27 07:14:36;;;;;;;13.73;7.10;;;-8.40;99.90;;;;;;4362379;32;20078;-63
2022/01/27 07:17:04;;;;;;;14.30;7.72;;;-8.40;99.90;;;;;;4350001;32;20566;-63
2022/01/27 07:19:30;;;;;;;13.10;7.03;;;-8.40;99.90;;;;;;4350030;32;20155;-63
2022/01/27 07:21:57;;;;;;;12.32;6.68;;;-8.40;99.90;;;;;;4337750;32;20190;-62
2022/01/27 07:24:24;;;;;;;13.32;7.40;;;-8.50;99.90;;;;;;4349743;32;20516;-62
2022/01/27 07:26:50;;;;;;;13.62;7.18;;;-8.60;99.90;;;;;;4350511;32;20166;-63
2022/01/27 07:29:18;;;;;;;14.57;7.60;;;-8.60;99.90;;;;;;4337547;32;20085;-63
2022/01/27 07:31:44;;;;;;;12.32;7.07;;;-8.70;99.90;;;;;;4362305;32;20068;-63
2022/01/27 07:34:11;;;;;;;12.77;7.85;;;-8.70;99.90;;;;;;4337758;32;20082;-63
2022/01/27 07:36:38;;;;;;;13.10;7.68;;;-8.40;99.90;;;;;;4349998;32;20097;-64
2022/01/27 07:39:04;;;;;;;13.05;6.82;;;-8.20;99.90;;;;;;4350814;32;20104;-63
2022/01/27 07:41:31;;;;;;;16.37;7.87;;;-8.10;99.90;;;;;;4363161;32;20066;-64
2022/01/27 07:43:57;;;;;;;10.25;6.37;;;-8.30;99.90;;;;;;4341255;32;20088;-63
2022/01/27 07:46:24;;;;;;;10.82;6.93;;;-8.10;99.90;;;;;;4338346;32;20173;-63
2022/01/27 07:48:50;;;;;;;11.05;6.50;;;-8.20;99.90;;;;;;4350764;32;20496;-63
2022/01/27 07:51:17;;;;;;;10.38;6.90;;;-8.10;99.90;;;;;;4377469;32;20090;-62
2022/01/27 07:53:43;;;;;;;14.82;7.97;;;-8.20;99.90;;;;;;4363267;32;20094;-64
2022/01/27 07:56:10;;;;;;;13.13;8.05;;;-8.10;99.90;;;;;;4353815;32;20070;-62
2022/01/27 07:58:38;;;;;;;13.55;7.97;;;-8.00;99.90;;;;;;4368405;32;20065;-63
2022/01/27 08:01:08;;;;;;;12.05;6.97;;;-8.00;99.90;;;;;;4356788;32;20075;-62
2022/01/27 08:03:36;;;;;;;12.00;7.47;;;-8.30;99.90;;;;;;4353748;32;20067;-62
2022/01/27 08:06:04;;;;;;;14.15;8.30;;;-8.10;99.90;;;;;;4362917;32;20228;-63
2022/01/27 08:08:31;;;;;;;13.93;8.27;;;-8.20;99.90;;;;;;4350119;32;20167;-63
2022/01/27 08:10:58;;;;;;;12.50;8.05;;;-8.20;99.90;;;;;;4361981;32;20083;-63
2022/01/27 08:13:26;;;;;;;14.18;8.88;;;-8.10;99.90;;;;;;4362976;32;20138;-64
2022/01/27 08:15:53;;;;;;;15.50;8.10;;;-7.90;99.90;;;;;;4339935;32;20157;-63
2022/01/27 08:18:20;;;;;;;17.73;10.18;;;-7.90;99.90;;;;;;4364452;32;20152;-63
2022/01/27 08:20:47;;;;;;;13.70;8.68;;;-7.90;99.90;;;;;;4352110;32;20066;-63
2022/01/27 08:23:15;;;;;;;15.07;8.60;;;-8.00;99.90;;;;;;4351940;32;20145;-63
2022/01/27 08:25:48;;;;;;;14.87;8.20;;;-8.10;99.90;;;;;;4364648;32;20113;-62
2022/01/27 08:28:26;;;;;;;15.45;8.15;;;-8.10;99.90;;;;;;4341052;32;20093;-63
2022/01/27 08:30:55;;;;;;;14.65;7.97;;;-8.00;99.90;;;;;;4354067;32;20170;-63
2022/01/27 08:33:23;;;;;;;13.50;7.55;;;-8.00;99.90;;;;;;4352577;32;20074;-63
2022/01/27 08:35:49;;;;;;;14.48;7.93;;;-7.90;99.90;;;;;;4364777;32;20062;-63
2022/01/27 08:38:16;;;;;;;13.73;7.68;;;-7.70;99.90;;;;;;4364505;32;20097;-62
2022/01/27 08:40:43;;;;;;;13.00;8.38;;;-7.70;99.90;;;;;;4352005;32;20157;-64
2022/01/27 08:43:09;;;;;;;15.02;8.20;;;-7.60;99.90;;;;;;4351916;32;20090;-62
2022/01/27 08:45:39;;;;;;;12.43;8.32;;;-7.50;99.90;;;;;;4377988;32;20501;-63
2022/01/27 08:48:10;;;;;;;15.32;9.82;;;-7.70;99.90;;;;;;4364939;32;20097;-63
2022/01/27 08:50:37;;;;;;;14.18;8.45;;;-7.60;99.90;;;;;;4339709;32;20464;-63
2022/01/27 08:53:03;;;;;;;11.27;8.23;;;-7.80;99.90;;;;;;4364601;32;20082;-64
2022/01/27 08:55:29;;;;;;;11.43;7.93;;;-7.90;99.90;;;;;;4352497;32;20101;-63
2022/01/27 08:57:56;;;;;;;14.05;8.30;;;-7.60;99.90;;;;;;4340161;32;20169;-63
2022/01/27 09:00:23;;;;;;;13.15;7.82;;;-7.70;99.90;;;;;;4351875;32;20082;-64
2022/01/27 09:02:50;;;;;;;13.65;8.48;;;-7.70;99.90;;;;;;4351846;32;20171;-63
2022/01/27 09:05:16;;;;;;;12.88;8.00;;;-7.60;99.90;;;;;;4363703;32;20088;-63
2022/01/27 09:07:43;;;;;;;14.68;8.35;;;-7.60;99.90;;;;;;4364206;32;20094;-63
2022/01/27 09:10:10;;;;;;;15.30;9.20;;;-7.40;99.90;;;;;;4364018;32;20081;-63
2022/01/27 09:12:36;;;;;;;13.77;8.82;;;-7.50;99.90;;;;;;4351370;32;20078;-63
2022/01/27 09:15:04;;;;;;;15.45;8.38;;;-7.30;99.90;;;;;;4351459;32;20497;-62
2022/01/27 09:17:38;;;;;;;13.48;9.07;;;-7.30;99.90;;;;;;4363339;32;20253;-63
2022/01/27 09:20:08;;;;;;;15.18;9.00;;;-7.20;99.90;;;;;;4339680;32;20518;-64
2022/01/27 09:22:36;;;;;;;12.65;8.20;;;-7.20;99.90;;;;;;4352135;32;20074;-63
2022/01/27 09:25:11;;;;;;;14.82;9.38;;;-7.30;99.90;;;;;;4339567;32;20086;-63
2022/01/27 09:27:42;;;;;;;13.23;8.60;;;-7.10;99.90;;;;;;4364951;32;20097;-63
2022/01/27 09:30:12;;;;;;;14.45;8.65;;;-7.20;99.90;;;;;;4351648;32;20545;-63
2022/01/27 09:32:39;;;;;;;13.50;8.07;;;-7.00;99.90;;;;;;4352042;32;20062;-63
2022/01/27 09:35:06;;;;;;;14.25;8.32;;;-6.70;99.90;;;;;;4351608;32;20078;-63
2022/01/27 09:37:33;;;;;;;14.77;8.50;;;-6.30;99.90;;;;;;4351236;32;20081;-63
2022/01/27 09:40:01;;;;;;;12.80;7.85;;;-6.30;99.90;;;;;;4363625;32;20098;-63
2022/01/27 09:42:31;;;;;;;13.65;8.35;;;-6.10;99.90;;;;;;4351644;32;20093;-63
2022/01/27 09:45:03;;;;;;;15.25;9.30;;;-6.20;99.90;;;;;;4339588;32;20093;-62
2022/01/27 09:47:31;;;;;;;15.38;9.40;;;-6.50;99.90;;;;;;4377356;32;20150;-63
2022/01/27 09:52:41;;;;;;;14.55;9.60;;;-6.50;99.90;;;;;;4352780;32;20066;-63
2022/01/27 09:55:08;;;;;;;14.40;8.48;;;-6.50;99.90;;;;;;4363353;32;20181;-64
2022/01/27 09:57:34;;;;;;;12.95;7.95;;;-6.50;99.90;;;;;;4357588;32;20150;-66
2022/01/27 10:00:01;;;;;;;12.13;7.40;;;-6.10;99.90;;;;;;4376173;32;20070;-62
2022/01/27 10:02:29;;;;;;;14.95;7.60;;;-6.30;99.90;;;;;;4346660;32;20133;-62
2022/01/27 10:04:57;;;;;;;13.27;7.62;;;-6.50;99.90;;;;;;4370542;32;20596;-64
2022/01/27 10:07:39;;;;;;;16.85;10.60;;;-6.30;99.90;;;;;;4358928;32;20069;-62
2022/01/27 10:10:14;;;;;;;17.50;9.23;;;-6.40;99.90;;;;;;4352465;32;20518;-62
2022/01/27 10:12:49;;;;;;;15.70;9.32;;;-6.40;99.90;;;;;;4351073;32;20231;-62
2022/01/27 10:15:21;;;;;;;13.43;8.13;;;-6.40;99.90;;;;;;4376961;32;20166;-62
2022/01/27 10:18:14;;;;;;;14.20;8.57;;;-6.40;99.90;;;;;;4361159;32;20146;-62
2022/01/27 10:21:00;;;;;;;15.05;8.40;;;-6.60;99.90;;;;;;4336035;32;20070;-63
2022/01/27 10:23:33;;;;;;;13.27;8.05;;;-6.70;99.90;;;;;;4348359;32;20081;-62
2022/01/27 10:26:13;;;;;;;14.82;8.77;;;-6.60;99.90;;;;;;4361178;32;20074;-64
2022/01/27 10:28:50;;;;;;;13.27;8.52;;;-6.40;99.90;;;;;;4368436;32;20059;-63
2022/01/27 10:31:20;;;;;;;14.43;8.73;;;-6.30;99.90;;;;;;4357126;32;20088;-64
2022/01/27 10:34:03;;;;;;;13.73;8.63;;;-6.50;99.90;;;;;;4359375;32;20130;-63
2022/01/27 10:36:41;;;;;;;14.35;8.50;;;-6.10;99.90;;;;;;4334799;32;20065;-63
2022/01/27 10:39:21;;;;;;;16.40;8.75;;;-6.30;99.90;;;;;;4360523;32;20074;-65
2022/01/27 10:42:06;;;;;;;14.40;8.15;;;-6.20;99.90;;;;;;4363027;32;20167;-64
2022/01/27 10:44:44;;;;;;;14.00;8.80;;;-6.10;99.90;;;;;;4340557;32;20098;-64
2022/01/27 10:47:22;;;;;;;12.80;8.23;;;-6.40;99.90;;;;;;4341971;32;20560;-67
2022/01/27 10:49:57;;;;;;;14.75;9.02;;;-6.30;99.90;;;;;;4345102;32;20146;-70
2022/01/27 10:52:56;;;;;;;14.32;8.70;;;-6.30;99.90;;;;;;4353841;32;20062;-67
2022/01/27 10:55:25;;;;;;;14.27;9.13;;;-6.20;99.90;;;;;;4355950;32;20109;-65
2022/01/27 10:57:52;;;;;;;13.13;8.13;;;-6.20;99.90;;;;;;4355438;32;20170;-66
2022/01/27 11:00:23;;;;;;;11.80;7.85;;;-6.30;99.90;;;;;;4357005;32;20165;-69
2022/01/27 11:02:57;;;;;;;13.75;7.87;;;-6.40;99.90;;;;;;4343561;32;20228;-66
2022/01/27 11:05:26;;;;;;;11.38;6.43;;;-6.50;99.90;;;;;;4345912;32;20108;-70
2022/01/27 11:07:53;;;;;;;14.20;8.73;;;-6.50;99.90;;;;;;4356932;32;20082;-74
2022/01/27 11:10:20;;;;;;;14.55;8.88;;;-6.50;99.90;;;;;;4344479;32;20514;-71
2022/01/27 11:12:49;;;;;;;13.50;8.32;;;-6.40;99.90;;;;;;4350411;32;20085;-72
2022/01/27 11:15:19;;;;;;;13.45;8.27;;;-6.40;99.90;;;;;;4368652;32;20112;-69
2022/01/27 11:17:49;;;;;;;13.10;7.85;;;-6.40;99.90;;;;;;4341604;32;20128;-66
2022/01/27 11:28:05;;;;;;;13.20;8.95;;;-6.10;99.90;;;;;;4357090;32;20086;-64
2022/01/27 11:31:01;;;;;;;12.88;8.45;;;-6.20;99.90;;;;;;4360043;32;20082;-69
2022/01/27 11:33:34;;;;;;;14.05;8.90;;;-6.30;99.90;;;;;;4340181;32;20070;-66
2022/01/27 11:36:29;;;;;;;12.98;8.00;;;-6.20;99.90;;;;;;4352171;32;20509;-64
2022/01/27 11:38:57;;;;;;;13.77;8.20;;;-6.10;99.90;;;;;;4337666;32;20147;-69
2022/01/27 11:41:48;;;;;;;13.88;8.25;;;-6.10;99.90;;;;;;4347260;32;20086;-69
2022/01/27 11:44:36;;;;;;;14.25;8.55;;;-6.20;99.90;;;;;;4350309;32;20074;-68
2022/01/27 11:47:10;;;;;;;14.45;8.13;;;-6.40;99.90;;;;;;4352824;32;20063;-68
2022/01/27 11:50:36;;;;;;;12.20;7.15;;;-6.60;99.90;;;;;;4358987;32;20112;-72
2022/01/27 11:53:08;;;;;;;12.18;7.65;;;-6.40;99.90;;;;;;4307587;33;20063;-74
2022/01/27 11:55:34;;;;;;;14.20;9.18;;;-6.50;99.90;;;;;;4309050;33;20601;-72
2022/01/27 11:58:20;;;;;;;12.15;7.97;;;-6.40;99.90;;;;;;4349158;32;20094;-74
2022/01/27 12:01:06;;;;;;;11.82;7.75;;;-6.40;99.90;;;;;;4359473;32;20499;-72
2022/01/27 12:03:35;;;;;;;12.88;7.53;;;-6.40;99.90;;;;;;4370107;32;20113;-74
2022/01/27 12:06:22;;;;;;;15.52;7.82;;;-6.50;99.90;;;;;;4342434;32;20081;-76
2022/01/27 12:08:49;;;;;;;13.27;8.07;;;-6.50;99.90;;;;;;4347901;32;20089;-75
2022/01/27 12:11:48;;;;;;;12.55;8.15;;;-6.30;99.90;;;;;;4348546;32;20090;-69
2022/01/27 12:14:18;;;;;;;12.85;7.35;;;-6.50;99.90;;;;;;4347853;32;20101;-78
2022/01/27 12:17:12;;;;;;;10.90;6.22;;;-6.50;99.90;;;;;;4349595;32;20584;-73
2022/01/27 12:20:01;;;;;;;10.73;6.93;;;-6.50;99.90;;;;;;4374887;32;20077;-70
2022/01/27 12:22:46;;;;;;;9.65;5.80;;;-6.50;99.90;;;;;;4364176;32;20074;-75
2022/01/27 12:25:13;;;;;;;13.27;6.60;;;-6.50;99.90;;;;;;4361119;32;20071;-72
2022/01/27 12:27:41;;;;;;;9.93;6.22;;;-6.50;99.90;;;;;;4356410;32;20086;-70
2022/01/27 12:30:10;;;;;;;11.38;6.55;;;-6.50;99.90;;;;;;4325997;32;20191;-69
2022/01/27 12:32:37;;;;;;;10.32;6.43;;;-6.40;99.90;;;;;;4364638;32;20565;-67
2022/01/27 12:35:09;;;;;;;12.35;7.72;;;-6.40;99.90;;;;;;4375781;32;20425;-68
2022/01/27 12:37:38;;;;;;;11.98;7.93;;;-6.50;99.90;;;;;;4351320;32;20063;-73
2022/01/27 12:40:09;;;;;;;12.37;7.95;;;-6.50;99.90;;;;;;4356126;32;20072;-74
2022/01/27 12:42:37;;;;;;;12.32;7.68;;;-6.40;99.90;;;;;;4362207;32;20085;-68
2022/01/27 12:45:13;;;;;;;12.57;9.18;;;-6.50;99.90;;;;;;4362171;32;20074;-77
2022/01/27 12:47:47;;;;;;;13.80;8.15;;;-6.60;99.90;;;;;;4358897;32;20077;-72
2022/01/27 12:50:20;;;;;;;12.85;8.10;;;-6.60;99.90;;;;;;4361187;32;20070;-73
2022/01/27 12:52:58;;;;;;;13.43;8.63;;;-6.50;99.90;;;;;;4359436;32;20133;-69
2022/01/27 12:55:34;;;;;;;14.77;8.93;;;-6.60;99.90;;;;;;4360287;32;20079;-72
2022/01/27 12:58:05;;;;;;;13.05;7.97;;;-6.60;99.90;;;;;;4355576;32;20094;-69
2022/01/27 13:00:51;;;;;;;13.43;8.73;;;-6.60;99.90;;;;;;4361483;32;20136;-74
2022/01/27 13:03:21;;;;;;;13.15;8.52;;;-6.70;99.90;;;;;;4386839;32;20081;-71
2022/01/27 13:05:53;;;;;;;14.57;8.27;;;-6.60;99.90;;;;;;4356040;32;20142;-71
2022/01/27 13:08:31;;;;;;;12.70;8.05;;;-6.60;99.90;;;;;;4370430;32;20064;-72
2022/01/27 13:11:08;;;;;;;14.73;7.93;;;-6.60;99.90;;;;;;4363793;32;20058;-73
2022/01/27 13:13:37;;;;;;;13.07;8.80;;;-6.50;99.90;;;;;;4373042;32;20101;-76
2022/01/27 13:16:16;;;;;;;13.85;8.82;;;-6.50;99.90;;;;;;4351238;32;20212;-72
2022/01/27 13:19:03;;;;;;;13.43;8.20;;;-6.50;99.90;;;;;;4373760;32;20061;-71
2022/01/27 13:21:31;;;;;;;12.85;8.23;;;-6.40;99.90;;;;;;4351854;32;20079;-67
2022/01/27 13:24:16;;;;;;;13.40;8.70;;;-6.40;99.90;;;;;;4359535;32;20549;-71
2022/01/27 13:26:45;;;;;;;14.52;8.80;;;-6.30;99.90;;;;;;4344366;32;20167;-71
2022/01/27 13:29:19;;;;;;;12.88;8.90;;;-6.40;99.90;;;;;;4357162;32;20120;-71
2022/01/27 13:31:46;;;;;;;14.63;9.40;;;-6.30;99.90;;;;;;4356971;32;20171;-69
2022/01/27 13:34:14;;;;;;;13.93;8.23;;;-6.30;99.90;;;;;;4372723;32;20156;-76
2022/01/27 13:36:40;;;;;;;13.18;8.35;;;-6.30;99.90;;;;;;4334808;32;20476;-77
2022/01/27 13:39:34;;;;;;;14.55;8.90;;;-6.20;99.90;;;;;;4358395;32;20098;-71